createdAt,value
2023-03-10T00:00:53.268Z,1.17
2023-03-10T00:03:20.937Z,1.63
2023-03-10T00:05:48.650Z,1.40
2023-03-10T00:08:19.464Z,1.80
2023-03-10T00:10:47.832Z,2.75
2023-03-10T00:13:15.475Z,3.40
2023-03-10T00:15:43.148Z,4.60
2023-03-10T00:18:10.843Z,3.63
2023-03-10T00:20:38.546Z,3.25
2023-03-10T00:23:06.158Z,3.38
2023-03-10T00:25:35.127Z,4.53
2023-03-10T00:28:02.986Z,4.05
2023-03-10T00:30:32.982Z,4.95
2023-03-10T00:33:00.620Z,4.45
2023-03-10T00:35:28.245Z,5.15
2023-03-10T00:37:56.146Z,5.05
2023-03-10T00:40:25.484Z,4.80
2023-03-10T00:42:55.238Z,4.57
2023-03-10T00:45:22.877Z,4.18
2023-03-10T00:47:50.511Z,3.17
2023-03-10T00:50:18.203Z,3.50
2023-03-10T00:52:45.903Z,3.20
2023-03-10T00:55:13.686Z,2.72
2023-03-10T00:57:41.334Z,2.15
2023-03-10T01:00:11.953Z,2.35
2023-03-10T01:02:39.560Z,2.88
2023-03-10T01:05:07.373Z,2.03
2023-03-10T01:07:35.020Z,2.30
2023-03-10T01:10:02.680Z,2.05
2023-03-10T01:12:30.323Z,2.15
2023-03-10T01:14:57.936Z,2.80
2023-03-10T01:17:26.928Z,2.63
2023-03-10T01:19:54.684Z,1.88
2023-03-10T01:22:22.480Z,2.17
2023-03-10T01:24:50.181Z,1.92
2023-03-10T01:27:17.869Z,2.35
2023-03-10T01:29:45.457Z,1.58
2023-03-10T01:32:13.128Z,1.30
2023-03-10T01:34:42.089Z,1.83
2023-03-10T01:37:09.697Z,1.83
2023-03-10T01:39:37.664Z,2.13
2023-03-10T01:42:05.462Z,1.77
2023-03-10T01:44:33.081Z,2.67
2023-03-10T01:47:00.943Z,3.40
2023-03-10T01:49:37.329Z,1.45
2023-03-10T01:52:08.492Z,2.35
2023-03-10T01:54:39.900Z,2.55
2023-03-10T01:57:08.389Z,1.85
2023-03-10T01:59:36.214Z,2.00
2023-03-10T02:02:04.286Z,2.00
2023-03-10T02:04:35.266Z,2.28
2023-03-10T02:07:05.031Z,2.90
2023-03-10T02:09:35.520Z,2.22
2023-03-10T02:12:04.329Z,2.47
2023-03-10T02:14:32.679Z,1.73
2023-03-10T02:17:00.442Z,2.03
2023-03-10T02:19:35.680Z,2.05
2023-03-10T02:22:05.988Z,2.80
2023-03-10T02:24:40.590Z,2.58
2023-03-10T02:27:17.492Z,2.40
2023-03-10T02:29:58.947Z,2.50
2023-03-10T02:32:27.984Z,3.38
2023-03-10T02:34:55.752Z,2.88
2023-03-10T02:37:24.972Z,2.08
2023-03-10T02:39:52.793Z,2.95
2023-03-10T02:42:22.185Z,2.65
2023-03-10T02:44:50.230Z,3.03
2023-03-10T02:47:18.061Z,2.95
2023-03-10T02:49:47.631Z,2.00
2023-03-10T02:52:21.016Z,2.10
2023-03-10T02:54:49.126Z,2.47
2023-03-10T02:57:16.730Z,1.90
2023-03-10T02:59:45.710Z,2.30
2023-03-10T03:02:13.299Z,2.83
2023-03-10T03:04:40.961Z,1.90
2023-03-10T03:07:09.210Z,3.00
2023-03-10T03:09:36.993Z,2.47
2023-03-10T03:12:05.381Z,2.10
2023-03-10T03:14:33.016Z,2.00
2023-03-10T03:17:02.050Z,2.43
2023-03-10T03:19:30.469Z,2.35
2023-03-10T03:21:58.195Z,1.38
2023-03-10T03:24:25.841Z,1.70
2023-03-10T03:26:54.582Z,1.60
2023-03-10T03:29:22.247Z,1.55
2023-03-10T03:31:49.928Z,2.15
2023-03-10T03:34:20.790Z,1.65
2023-03-10T03:36:48.470Z,1.70
2023-03-10T03:39:17.440Z,1.92
2023-03-10T03:41:45.165Z,1.77
2023-03-10T03:44:13.044Z,2.20
2023-03-10T03:46:40.651Z,1.42
2023-03-10T03:49:08.330Z,1.33
2023-03-10T03:51:38.232Z,1.73
2023-03-10T03:54:05.912Z,1.42
2023-03-10T03:56:33.594Z,1.25
2023-03-10T03:59:01.206Z,1.35
2023-03-10T04:01:29.765Z,1.63
2023-03-10T04:03:57.434Z,2.65
2023-03-10T04:06:25.168Z,1.88
2023-03-10T04:08:54.113Z,1.15
2023-03-10T04:11:21.769Z,2.30
2023-03-10T04:13:49.371Z,1.83
2023-03-10T04:16:17.050Z,1.95
2023-03-10T04:18:44.984Z,1.13
2023-03-10T04:21:12.607Z,1.88
2023-03-10T04:23:42.101Z,1.85
2023-03-10T04:26:11.221Z,1.35
2023-03-10T04:28:39.283Z,2.30
2023-03-10T04:31:12.239Z,1.83
2023-03-10T04:33:39.976Z,2.60
2023-03-10T04:36:08.146Z,1.35
2023-03-10T04:38:36.804Z,1.80
2023-03-10T04:41:05.247Z,1.50
2023-03-10T04:43:34.206Z,1.75
2023-03-10T04:46:02.827Z,1.83
2023-03-10T04:48:30.422Z,1.67
2023-03-10T04:50:58.193Z,1.90
2023-03-10T04:53:25.855Z,1.85
2023-03-10T04:55:55.544Z,2.00
2023-03-10T04:58:24.301Z,2.92
2023-03-10T05:01:02.888Z,1.38
2023-03-10T05:03:31.282Z,2.58
2023-03-10T05:05:59.193Z,1.58
2023-03-10T05:08:26.804Z,2.50
2023-03-10T05:10:54.613Z,3.22
2023-03-10T05:13:22.363Z,1.95
2023-03-10T05:15:50.083Z,2.65
2023-03-10T05:18:19.588Z,1.92
2023-03-10T05:20:47.688Z,1.75
2023-03-10T05:23:15.345Z,2.50
2023-03-10T05:25:42.952Z,1.50
2023-03-10T05:28:10.597Z,2.13
2023-03-10T05:30:38.854Z,2.25
2023-03-10T05:33:06.620Z,2.17
2023-03-10T05:35:35.692Z,2.35
2023-03-10T05:38:03.452Z,1.85
2023-03-10T05:40:31.098Z,1.85
2023-03-10T05:42:58.829Z,1.85
2023-03-10T05:45:26.481Z,2.00
2023-03-10T05:47:57.736Z,1.20
2023-03-10T05:50:25.726Z,1.48
2023-03-10T05:52:54.734Z,1.25
2023-03-10T05:55:24.037Z,2.03
2023-03-10T05:57:51.685Z,1.75
2023-03-10T06:00:21.410Z,1.65
2023-03-10T06:02:49.072Z,2.08
2023-03-10T06:05:16.696Z,1.80
2023-03-10T06:07:44.314Z,1.00
2023-03-10T06:10:13.437Z,1.88
2023-03-10T06:12:41.348Z,1.88
2023-03-10T06:15:09.536Z,1.75
2023-03-10T06:17:37.181Z,1.25
2023-03-10T06:20:05.579Z,1.38
2023-03-10T06:22:33.238Z,1.50
2023-03-10T06:25:00.911Z,1.63
2023-03-10T06:27:30.598Z,1.42
2023-03-10T06:29:59.042Z,1.20
2023-03-10T06:32:26.792Z,2.00
2023-03-10T06:34:54.579Z,3.47
2023-03-10T06:37:22.223Z,1.45
2023-03-10T06:39:50.868Z,1.38
2023-03-10T06:42:18.487Z,1.65
2023-03-10T06:44:49.191Z,2.50
2023-03-10T06:47:17.054Z,1.90
2023-03-10T06:49:44.661Z,1.92
2023-03-10T06:52:12.577Z,1.70
2023-03-10T06:54:41.879Z,1.60
2023-03-10T06:57:09.660Z,2.83
2023-03-10T06:59:37.349Z,1.90
2023-03-10T07:02:07.120Z,1.95
2023-03-10T07:04:34.794Z,1.70
2023-03-10T07:07:02.429Z,1.80
2023-03-10T07:09:30.226Z,1.50
2023-03-10T07:11:57.825Z,1.80
2023-03-10T07:14:25.470Z,1.90
2023-03-10T07:16:53.994Z,2.83
2023-03-10T07:19:23.076Z,2.42
2023-03-10T07:21:50.729Z,2.28
2023-03-10T07:24:18.365Z,2.95
2023-03-10T07:26:46.299Z,1.95
2023-03-10T07:29:13.938Z,2.40
2023-03-10T07:31:42.442Z,2.35
2023-03-10T07:34:10.050Z,2.97
2023-03-10T07:36:41.051Z,2.55
2023-03-10T07:39:09.811Z,1.70
2023-03-10T07:41:37.527Z,1.80
2023-03-10T07:44:05.190Z,2.63
2023-03-10T07:46:32.911Z,2.83
2023-03-10T07:49:04.261Z,2.58
2023-03-10T07:51:31.888Z,2.88
2023-03-10T07:54:00.944Z,2.05
2023-03-10T07:56:28.575Z,2.03
2023-03-10T07:58:56.205Z,2.25
2023-03-10T08:01:23.855Z,2.20
2023-03-10T08:03:51.617Z,2.00
2023-03-10T08:06:20.213Z,2.95
2023-03-10T08:08:47.992Z,1.67
2023-03-10T08:11:17.175Z,1.88
2023-03-10T08:13:47.594Z,1.88
2023-03-10T08:16:15.967Z,1.70
2023-03-10T08:18:43.762Z,1.63
2023-03-10T08:21:11.747Z,1.77
2023-03-10T08:23:39.700Z,2.35
2023-03-10T08:26:08.660Z,1.70
2023-03-10T08:28:38.885Z,1.17
2023-03-10T08:31:10.941Z,1.80
2023-03-10T08:33:39.040Z,1.35
2023-03-10T08:36:07.829Z,1.40
2023-03-10T08:38:36.491Z,1.42
2023-03-10T08:41:11.390Z,1.90
2023-03-10T08:43:40.852Z,3.17
2023-03-10T08:46:09.126Z,2.30
2023-03-10T08:48:37.054Z,3.35
2023-03-10T08:51:05.838Z,2.70
2023-03-10T08:53:34.362Z,2.67
2023-03-10T08:56:02.025Z,4.05
2023-03-10T08:58:29.966Z,2.70
2023-03-10T09:00:59.213Z,2.67
2023-03-10T09:03:29.591Z,2.92
2023-03-10T09:05:59.062Z,3.17
2023-03-10T09:08:27.904Z,3.28
2023-03-10T09:10:55.626Z,2.83
2023-03-10T09:13:23.377Z,3.53
2023-03-10T09:15:52.901Z,2.78
2023-03-10T09:18:22.570Z,2.30
2023-03-10T09:20:50.613Z,2.50
2023-03-10T09:23:18.918Z,2.38
2023-03-10T09:25:47.891Z,1.52
2023-03-10T09:28:18.261Z,2.28
2023-03-10T09:30:48.251Z,1.52
2023-03-10T09:33:16.859Z,1.42
2023-03-10T09:35:52.774Z,1.67
2023-03-10T09:38:25.443Z,2.13
2023-03-10T09:40:59.035Z,1.70
2023-03-10T09:43:27.812Z,1.65
2023-03-10T09:45:58.238Z,1.40
2023-03-10T09:48:35.776Z,1.42
2023-03-10T09:51:07.169Z,1.55
2023-03-10T09:53:41.651Z,1.60
2023-03-10T09:56:12.624Z,1.77
2023-03-10T09:58:42.212Z,1.45
2023-03-10T10:01:14.157Z,1.40
2023-03-10T10:03:52.767Z,2.03
2023-03-10T10:06:25.761Z,2.00
2023-03-10T10:09:04.278Z,2.05
2023-03-10T10:11:33.327Z,2.25
2023-03-10T10:14:15.906Z,2.63
2023-03-10T10:16:49.280Z,2.15
2023-03-10T10:19:21.081Z,1.98
2023-03-10T10:21:53.554Z,1.80
2023-03-10T10:24:21.706Z,1.95
2023-03-10T10:26:51.478Z,2.00
2023-03-10T10:29:20.883Z,1.77
2023-03-10T10:32:05.613Z,2.13
2023-03-10T10:34:33.682Z,1.95
2023-03-10T10:37:03.429Z,2.00
2023-03-10T10:39:33.019Z,2.15
2023-03-10T10:42:20.325Z,2.10
2023-03-10T10:44:48.286Z,2.15
2023-03-10T10:47:26.640Z,1.95
2023-03-10T10:49:54.371Z,1.73
2023-03-10T10:52:24.620Z,1.77
2023-03-10T10:54:56.288Z,2.17
2023-03-10T10:57:25.278Z,1.58
2023-03-10T10:59:52.930Z,1.55
2023-03-10T11:02:25.096Z,1.58
2023-03-10T11:04:52.798Z,1.38
2023-03-10T11:07:21.762Z,1.73
2023-03-10T11:09:50.818Z,1.73
2023-03-10T11:12:22.041Z,1.05
2023-03-10T11:14:58.647Z,1.40
2023-03-10T11:17:28.554Z,1.67
2023-03-10T11:19:58.690Z,2.83
2023-03-10T11:22:30.953Z,2.17
2023-03-10T11:25:02.477Z,2.08
2023-03-10T11:27:39.665Z,2.10
2023-03-10T11:30:13.567Z,2.33
2023-03-10T11:32:46.126Z,2.35
2023-03-10T11:35:17.668Z,1.85
2023-03-10T11:37:48.333Z,1.88
2023-03-10T11:40:20.685Z,1.88
2023-03-10T11:42:52.530Z,2.25
2023-03-10T11:45:25.551Z,1.27
2023-03-10T11:47:58.221Z,1.98
2023-03-10T11:50:30.165Z,1.48
2023-03-10T11:53:13.427Z,1.20
2023-03-10T11:55:43.846Z,1.70
2023-03-10T11:58:19.568Z,1.58
2023-03-10T12:00:47.693Z,3.15
2023-03-10T12:03:18.131Z,1.45
2023-03-10T12:05:50.879Z,2.30
2023-03-10T12:08:22.199Z,2.13
2023-03-10T12:10:51.372Z,2.00
2023-03-10T12:13:30.464Z,2.40
2023-03-10T12:16:00.735Z,2.63
2023-03-10T12:18:29.030Z,2.88
2023-03-10T12:21:13.879Z,2.10
2023-03-10T12:23:42.251Z,1.70
2023-03-10T12:26:11.301Z,1.73
2023-03-10T12:28:41.967Z,1.73
2023-03-10T12:31:11.496Z,1.85
2023-03-10T12:33:42.095Z,1.30
2023-03-10T12:36:11.633Z,1.17
2023-03-10T12:38:42.780Z,1.20
2023-03-10T12:41:11.929Z,1.10
2023-03-10T12:44:03.319Z,1.42
2023-03-10T12:46:40.549Z,1.65
2023-03-10T12:49:15.333Z,2.47
2023-03-10T12:51:45.770Z,2.92
2023-03-10T12:54:23.888Z,2.47
2023-03-10T12:56:58.574Z,3.15
2023-03-10T12:59:31.534Z,2.53
2023-03-10T13:02:01.802Z,3.72
2023-03-10T13:04:32.207Z,3.50
2023-03-10T13:07:03.806Z,2.95
2023-03-10T13:09:33.083Z,3.65
2023-03-10T13:12:05.011Z,2.90
2023-03-10T13:14:40.211Z,2.88
2023-03-10T13:17:09.679Z,1.52
2023-03-10T13:19:38.892Z,1.00
2023-03-10T13:22:06.560Z,1.02
2023-03-10T13:24:35.923Z,1.08
2023-03-10T13:27:08.900Z,1.42
2023-03-10T13:29:36.564Z,1.00
2023-03-10T13:32:05.036Z,1.52
2023-03-10T13:34:33.930Z,1.50
2023-03-10T13:37:06.170Z,1.38
2023-03-10T13:39:33.834Z,1.52
2023-03-10T13:42:02.363Z,0.90
2023-03-10T13:44:33.868Z,1.05
2023-03-10T13:47:02.762Z,0.90
2023-03-10T13:49:32.500Z,1.05
2023-03-10T13:52:01.231Z,2.97
2023-03-10T13:54:30.271Z,0.60
2023-03-10T13:56:58.985Z,1.52
2023-03-10T13:59:28.197Z,0.47
2023-03-10T14:01:58.068Z,0.60
2023-03-10T14:04:43.079Z,0.80
2023-03-10T14:07:15.057Z,1.13
2023-03-10T14:09:42.757Z,1.20
2023-03-10T14:12:11.128Z,1.80
2023-03-10T14:14:39.751Z,1.17
2023-03-10T14:17:09.763Z,1.67
2023-03-10T14:19:38.227Z,1.65
2023-03-10T14:22:21.979Z,2.03
2023-03-10T14:24:49.712Z,1.67
2023-03-10T14:27:17.604Z,2.13
2023-03-10T14:29:50.143Z,2.45
2023-03-10T14:32:19.536Z,1.48
2023-03-10T14:34:47.427Z,2.33
2023-03-10T14:37:16.053Z,2.55
2023-03-10T14:39:43.698Z,2.05
2023-03-10T14:42:18.332Z,1.98
2023-03-10T14:44:46.262Z,2.05
2023-03-10T14:47:14.627Z,1.98
2023-03-10T14:49:43.768Z,3.40
2023-03-10T14:52:15.686Z,2.83
2023-03-10T14:54:43.346Z,2.80
2023-03-10T14:57:11.931Z,3.58
2023-03-10T14:59:40.444Z,2.30
2023-03-10T15:02:09.636Z,3.72
2023-03-10T15:04:37.292Z,5.95
2023-03-10T15:07:06.321Z,2.83
2023-03-10T15:09:35.349Z,2.92
2023-03-10T15:12:03.027Z,2.83
2023-03-10T15:14:30.765Z,2.70
2023-03-10T15:16:58.465Z,3.13
2023-03-10T15:19:26.799Z,2.78
2023-03-10T15:21:57.556Z,2.10
2023-03-10T15:24:26.829Z,2.50
2023-03-10T15:26:54.449Z,1.38
2023-03-10T15:29:23.545Z,1.13
2023-03-10T15:31:52.075Z,1.02
2023-03-10T15:34:20.765Z,1.90
2023-03-10T15:36:48.489Z,1.20
2023-03-10T15:39:29.115Z,1.92
2023-03-10T15:42:00.403Z,1.23
2023-03-10T15:44:28.216Z,2.15
2023-03-10T15:46:56.478Z,1.33
2023-03-10T15:49:24.259Z,1.95
2023-03-10T15:51:51.910Z,1.50
2023-03-10T15:54:19.736Z,1.33
2023-03-10T15:56:47.359Z,1.45
2023-03-10T15:59:16.555Z,1.27
2023-03-10T16:01:44.190Z,2.25
2023-03-10T16:04:11.900Z,1.08
2023-03-10T16:06:39.567Z,1.40
2023-03-10T16:09:09.032Z,0.90
2023-03-10T16:11:36.852Z,1.48
2023-03-10T16:14:05.394Z,1.13
2023-03-10T16:16:34.967Z,2.00
2023-03-10T16:19:02.700Z,0.98
2023-03-10T16:21:30.370Z,1.02
2023-03-10T16:23:58.412Z,0.98
2023-03-10T16:26:26.839Z,1.40
2023-03-10T16:28:55.269Z,0.93
2023-03-10T16:31:23.677Z,1.08
2023-03-10T16:33:52.758Z,0.95
2023-03-10T16:36:21.196Z,1.23
2023-03-10T16:38:49.807Z,1.25
2023-03-10T16:41:17.789Z,1.95
2023-03-10T16:43:46.495Z,0.90
2023-03-10T16:46:14.854Z,1.45
2023-03-10T16:48:43.928Z,1.50
2023-03-10T16:51:23.534Z,0.90
2023-03-10T16:53:52.257Z,1.08
2023-03-10T16:56:19.968Z,1.23
2023-03-10T16:58:47.779Z,1.27
2023-03-10T17:01:15.615Z,1.13
2023-03-10T17:03:43.338Z,0.98
2023-03-10T17:06:12.043Z,1.15
2023-03-10T17:08:43.809Z,0.98
2023-03-10T17:11:18.129Z,0.88
2023-03-10T17:13:47.313Z,1.08
2023-03-10T17:16:15.307Z,1.02
2023-03-10T17:18:43.153Z,0.93
2023-03-10T17:21:11.702Z,0.40
2023-03-10T17:23:39.416Z,0.43
2023-03-10T17:26:10.250Z,1.23
2023-03-10T17:28:39.005Z,0.82
2023-03-10T17:31:07.406Z,0.65
2023-03-10T17:33:35.854Z,1.00
2023-03-10T17:36:07.036Z,0.80
2023-03-10T17:38:35.874Z,1.02
2023-03-10T17:41:05.245Z,0.63
2023-03-10T17:43:34.851Z,0.63
2023-03-10T17:46:03.503Z,0.80
2023-03-10T17:48:31.552Z,0.73
2023-03-10T17:50:59.229Z,1.73
2023-03-10T17:53:27.341Z,0.98
2023-03-10T17:55:55.180Z,1.00
2023-03-10T17:58:23.386Z,1.00
2023-03-10T18:00:52.393Z,1.60
2023-03-10T18:03:22.088Z,1.30
2023-03-10T18:05:49.833Z,0.40
2023-03-10T18:08:17.985Z,1.20
2023-03-10T18:10:45.641Z,1.15
2023-03-10T18:13:13.466Z,1.38
2023-03-10T18:15:41.114Z,1.73
2023-03-10T18:18:10.140Z,1.15
2023-03-10T18:20:38.154Z,1.95
2023-03-10T18:23:05.757Z,1.80
2023-03-10T18:25:33.406Z,1.25
2023-03-10T18:28:01.055Z,1.02
2023-03-10T18:30:29.046Z,0.93
2023-03-10T18:32:56.873Z,0.98
2023-03-10T18:35:25.896Z,1.08
2023-03-10T18:37:53.492Z,0.90
2023-03-10T18:40:21.175Z,1.17
2023-03-10T18:42:49.151Z,0.75
2023-03-10T18:45:16.940Z,1.52
2023-03-10T18:47:46.849Z,1.23
2023-03-10T18:50:15.214Z,1.35
2023-03-10T18:52:44.745Z,1.25
2023-03-10T18:55:12.916Z,1.25
2023-03-10T18:57:40.547Z,0.80
2023-03-10T19:00:14.482Z,1.00
2023-03-10T19:02:42.319Z,1.25
2023-03-10T19:05:12.176Z,0.88
2023-03-10T19:07:40.650Z,0.75
2023-03-10T19:10:12.643Z,0.43
2023-03-10T19:12:40.428Z,0.93
2023-03-10T19:15:09.244Z,1.35
2023-03-10T19:17:37.784Z,1.63
2023-03-10T19:20:09.102Z,1.15
2023-03-10T19:22:37.161Z,1.08
2023-03-10T19:25:06.121Z,1.05
2023-03-10T19:27:39.802Z,0.90
2023-03-10T19:30:12.504Z,1.45
2023-03-10T19:32:41.238Z,0.90
2023-03-10T19:35:09.654Z,1.25
2023-03-10T19:37:37.971Z,1.25
2023-03-10T19:40:08.466Z,1.00
2023-03-10T19:42:38.871Z,0.90
2023-03-10T19:45:07.443Z,1.40
2023-03-10T19:47:35.071Z,1.70
2023-03-10T19:50:02.844Z,1.77
2023-03-10T19:52:30.605Z,1.90
2023-03-10T19:54:58.771Z,1.70
2023-03-10T19:57:26.423Z,1.60
2023-03-10T19:59:55.402Z,1.65
2023-03-10T20:02:24.858Z,1.38
2023-03-10T20:04:52.573Z,2.40
2023-03-10T20:07:20.193Z,1.10
2023-03-10T20:09:49.463Z,1.50
2023-03-10T20:12:17.133Z,2.13
2023-03-10T20:14:44.836Z,1.73
2023-03-10T20:17:13.801Z,1.90
2023-03-10T20:19:41.804Z,1.65
2023-03-10T20:22:09.788Z,2.30
2023-03-10T20:24:37.503Z,2.83
2023-03-10T20:27:05.177Z,3.10
2023-03-10T20:29:32.949Z,2.08
2023-03-10T20:32:00.634Z,2.03
2023-03-10T20:34:29.716Z,2.30
2023-03-10T20:36:57.429Z,2.40
2023-03-10T20:39:25.460Z,2.20
2023-03-10T20:41:53.110Z,1.98
2023-03-10T20:44:20.968Z,1.77
2023-03-10T20:46:48.605Z,1.67
2023-03-10T20:49:16.263Z,2.60
2023-03-10T20:51:45.451Z,2.50
2023-03-10T20:54:13.739Z,2.70
2023-03-10T20:56:41.493Z,2.45
2023-03-10T20:59:09.233Z,2.70
2023-03-10T21:01:39.738Z,2.58
2023-03-10T21:04:07.736Z,2.70
2023-03-10T21:06:35.936Z,3.58
2023-03-10T21:09:06.294Z,2.20
2023-03-10T21:11:34.070Z,2.40
2023-03-10T21:14:01.826Z,2.33
2023-03-10T21:16:29.883Z,3.13
2023-03-10T21:18:57.886Z,2.17
2023-03-10T21:21:25.666Z,2.67
2023-03-10T21:23:55.026Z,3.33
2023-03-10T21:26:24.065Z,3.30
2023-03-10T21:28:51.785Z,2.28
2023-03-10T21:31:19.409Z,2.80
2023-03-10T21:33:47.765Z,2.17
2023-03-10T21:36:16.722Z,2.40
2023-03-10T21:38:44.402Z,3.67
2023-03-10T21:41:12.210Z,2.85
2023-03-10T21:43:41.261Z,3.05
2023-03-10T21:46:09.272Z,2.92
2023-03-10T21:48:36.984Z,2.17
2023-03-10T21:51:04.815Z,3.42
2023-03-10T21:53:32.836Z,2.60
2023-03-10T21:56:00.880Z,2.95
2023-03-10T21:58:28.569Z,2.05
2023-03-10T22:00:57.571Z,2.00
2023-03-10T22:03:25.306Z,2.00
2023-03-10T22:05:52.948Z,2.42
2023-03-10T22:08:21.039Z,1.52
2023-03-10T22:10:48.688Z,1.23
2023-03-10T22:13:16.481Z,2.10
2023-03-10T22:15:44.208Z,1.60
2023-03-10T22:18:13.215Z,1.42
2023-03-10T22:20:40.836Z,1.30
2023-03-10T22:23:08.573Z,1.90
2023-03-10T22:25:36.380Z,1.63
2023-03-10T22:28:04.062Z,1.67
2023-03-10T22:30:32.457Z,1.38
2023-03-10T22:33:00.195Z,1.65
2023-03-10T22:35:29.265Z,1.40
2023-03-10T22:37:56.972Z,1.55
2023-03-10T22:40:25.534Z,2.20
2023-03-10T22:42:53.325Z,1.95
2023-03-10T22:45:22.451Z,1.95
2023-03-10T22:47:57.758Z,1.83
2023-03-10T22:50:26.535Z,2.50
2023-03-10T22:52:55.646Z,2.20
2023-03-10T22:55:25.076Z,1.98
2023-03-10T22:57:53.122Z,1.95
2023-03-10T23:00:21.942Z,2.28
2023-03-10T23:02:50.580Z,2.80
2023-03-10T23:05:18.434Z,2.63
2023-03-10T23:07:46.417Z,2.08
2023-03-10T23:10:18.866Z,1.73
2023-03-10T23:12:46.495Z,2.05
2023-03-10T23:15:24.027Z,2.47
2023-03-10T23:17:52.820Z,2.05
2023-03-10T23:20:20.658Z,2.47
2023-03-10T23:22:48.508Z,2.60
2023-03-10T23:25:19.428Z,2.80
2023-03-10T23:27:47.102Z,3.67
2023-03-10T23:30:15.944Z,3.28
2023-03-10T23:32:44.646Z,2.85
2023-03-10T23:35:13.228Z,3.00
2023-03-10T23:37:40.885Z,2.72
2023-03-10T23:40:11.550Z,3.03
2023-03-10T23:42:40.558Z,3.85
2023-03-10T23:45:09.527Z,3.25
2023-03-10T23:47:38.004Z,3.35
2023-03-10T23:50:07.299Z,3.15
2023-03-10T23:52:35.273Z,2.65
2023-03-10T23:55:02.973Z,2.40
2023-03-10T23:57:30.606Z,2.17
2023-03-10T23:59:59.607Z,2.92
